sensor_id;sensor_type;location;lat;lon;timestamp;P1;durP1;ratioP1;P2;durP2;ratioP2
56285;SDS011;42191;47.562;9.686;2023-02-13T00:00:30;47.50;;;44.10;;
56285;SDS011;42191;47.562;9.686;2023-02-13T00:02:58;49.47;;;45.78;;
56285;SDS011;42191;47.562;9.686;2023-02-13T00:05:24;50.47;;;46.63;;
56285;SDS011;42191;47.562;9.686;2023-02-13T00:07:50;46.58;;;43.08;;
56285;SDS011;42191;47.562;9.686;2023-02-13T00:10:16;50.20;;;46.40;;
56285;SDS011;42191;47.562;9.686;2023-02-13T00:12:43;49.25;;;45.65;;
56285;SDS011;42191;47.562;9.686;2023-02-13T00:15:09;48.65;;;44.97;;
56285;SDS011;42191;47.562;9.686;2023-02-13T00:17:35;47.70;;;44.15;;
56285;SDS011;42191;47.562;9.686;2023-02-13T00:20:01;48.42;;;44.72;;
56285;SDS011;42191;47.562;9.686;2023-02-13T00:22:28;49.47;;;45.67;;
56285;SDS011;42191;47.562;9.686;2023-02-13T00:24:54;45.95;;;42.50;;
56285;SDS011;42191;47.562;9.686;2023-02-13T00:27:20;47.08;;;43.60;;
56285;SDS011;42191;47.562;9.686;2023-02-13T00:29:46;49.47;;;45.78;;
56285;SDS011;42191;47.562;9.686;2023-02-13T00:32:13;48.05;;;44.55;;
56285;SDS011;42191;47.562;9.686;2023-02-13T00:34:39;47.83;;;44.28;;
56285;SDS011;42191;47.562;9.686;2023-02-13T00:37:06;49.83;;;46.13;;
56285;SDS011;42191;47.562;9.686;2023-02-13T00:39:32;48.35;;;44.80;;
56285;SDS011;42191;47.562;9.686;2023-02-13T00:41:58;47.90;;;44.22;;
56285;SDS011;42191;47.562;9.686;2023-02-13T00:44:24;46.53;;;43.10;;
56285;SDS011;42191;47.562;9.686;2023-02-13T00:46:50;45.20;;;41.95;;
56285;SDS011;42191;47.562;9.686;2023-02-13T00:49:16;48.10;;;44.45;;
56285;SDS011;42191;47.562;9.686;2023-02-13T00:51:42;46.92;;;43.45;;
56285;SDS011;42191;47.562;9.686;2023-02-13T00:54:09;45.17;;;41.88;;
56285;SDS011;42191;47.562;9.686;2023-02-13T00:56:35;48.33;;;44.53;;
56285;SDS011;42191;47.562;9.686;2023-02-13T00:59:01;48.28;;;44.58;;
56285;SDS011;42191;47.562;9.686;2023-02-13T01:01:27;45.17;;;41.88;;
56285;SDS011;42191;47.562;9.686;2023-02-13T01:03:53;47.03;;;43.55;;
56285;SDS011;42191;47.562;9.686;2023-02-13T01:06:19;48.90;;;45.22;;
56285;SDS011;42191;47.562;9.686;2023-02-13T01:08:45;46.08;;;42.75;;
56285;SDS011;42191;47.562;9.686;2023-02-13T01:11:12;48.85;;;45.35;;
56285;SDS011;42191;47.562;9.686;2023-02-13T01:13:38;48.03;;;44.35;;
56285;SDS011;42191;47.562;9.686;2023-02-13T01:16:04;46.78;;;43.38;;
56285;SDS011;42191;47.562;9.686;2023-02-13T01:18:31;46.92;;;43.22;;
56285;SDS011;42191;47.562;9.686;2023-02-13T01:21:01;45.92;;;42.55;;
56285;SDS011;42191;47.562;9.686;2023-02-13T01:23:33;46.00;;;42.65;;
56285;SDS011;42191;47.562;9.686;2023-02-13T01:26:05;45.17;;;41.80;;
56285;SDS011;42191;47.562;9.686;2023-02-13T01:28:33;44.50;;;41.13;;
56285;SDS011;42191;47.562;9.686;2023-02-13T01:30:59;46.00;;;42.60;;
56285;SDS011;42191;47.562;9.686;2023-02-13T01:33:26;46.65;;;43.15;;
56285;SDS011;42191;47.562;9.686;2023-02-13T01:35:53;45.03;;;41.63;;
56285;SDS011;42191;47.562;9.686;2023-02-13T01:38:19;44.78;;;41.53;;
56285;SDS011;42191;47.562;9.686;2023-02-13T01:40:52;45.45;;;41.92;;
56285;SDS011;42191;47.562;9.686;2023-02-13T01:45:47;47.35;;;43.85;;
56285;SDS011;42191;47.562;9.686;2023-02-13T01:48:20;45.53;;;41.95;;
56285;SDS011;42191;47.562;9.686;2023-02-13T01:50:55;47.90;;;44.42;;
56285;SDS011;42191;47.562;9.686;2023-02-13T01:53:39;45.53;;;42.22;;
56285;SDS011;42191;47.562;9.686;2023-02-13T01:58:45;46.78;;;43.40;;
56285;SDS011;42191;47.562;9.686;2023-02-13T02:01:15;47.92;;;44.53;;
56285;SDS011;42191;47.562;9.686;2023-02-13T02:03:43;45.10;;;41.72;;
56285;SDS011;42191;47.562;9.686;2023-02-13T02:06:13;47.75;;;44.25;;
56285;SDS011;42191;47.562;9.686;2023-02-13T02:09:03;46.55;;;43.05;;
56285;SDS011;42191;47.562;9.686;2023-02-13T02:11:36;46.88;;;43.38;;
56285;SDS011;42191;47.562;9.686;2023-02-13T02:14:17;47.78;;;44.17;;
56285;SDS011;42191;47.562;9.686;2023-02-13T02:16:43;48.08;;;44.28;;
56285;SDS011;42191;47.562;9.686;2023-02-13T02:19:13;48.20;;;44.30;;
56285;SDS011;42191;47.562;9.686;2023-02-13T02:27:49;46.83;;;43.33;;
56285;SDS011;42191;47.562;9.686;2023-02-13T02:31:00;48.10;;;44.50;;
56285;SDS011;42191;47.562;9.686;2023-02-13T02:33:51;48.20;;;44.60;;
56285;SDS011;42191;47.562;9.686;2023-02-13T02:42:09;49.08;;;45.47;;
56285;SDS011;42191;47.562;9.686;2023-02-13T02:45:00;46.90;;;43.50;;
56285;SDS011;42191;47.562;9.686;2023-02-13T02:47:53;47.60;;;44.00;;
56285;SDS011;42191;47.562;9.686;2023-02-13T02:50:55;45.33;;;41.90;;
56285;SDS011;42191;47.562;9.686;2023-02-13T02:56:16;47.30;;;43.63;;
56285;SDS011;42191;47.562;9.686;2023-02-13T02:58:53;47.25;;;43.55;;
56285;SDS011;42191;47.562;9.686;2023-02-13T03:01:46;46.13;;;42.83;;
56285;SDS011;42191;47.562;9.686;2023-02-13T03:04:36;47.67;;;43.90;;
56285;SDS011;42191;47.562;9.686;2023-02-13T03:07:24;45.08;;;41.67;;
56285;SDS011;42191;47.562;9.686;2023-02-13T03:09:52;45.85;;;42.35;;
56285;SDS011;42191;47.562;9.686;2023-02-13T03:12:51;48.17;;;44.28;;
56285;SDS011;42191;47.562;9.686;2023-02-13T03:15:43;44.72;;;41.33;;
56285;SDS011;42191;47.562;9.686;2023-02-13T03:18:29;48.00;;;44.33;;
56285;SDS011;42191;47.562;9.686;2023-02-13T03:24:32;48.42;;;44.63;;
56285;SDS011;42191;47.562;9.686;2023-02-13T03:35:36;48.95;;;45.05;;
56285;SDS011;42191;47.562;9.686;2023-02-13T03:38:36;46.95;;;43.38;;
56285;SDS011;42191;47.562;9.686;2023-02-13T03:41:28;47.45;;;43.75;;
56285;SDS011;42191;47.562;9.686;2023-02-13T03:44:10;47.58;;;43.97;;
56285;SDS011;42191;47.562;9.686;2023-02-13T03:46:38;46.90;;;43.30;;
56285;SDS011;42191;47.562;9.686;2023-02-13T03:49:06;46.92;;;43.42;;
56285;SDS011;42191;47.562;9.686;2023-02-13T03:52:01;45.28;;;41.70;;
56285;SDS011;42191;47.562;9.686;2023-02-13T03:54:45;49.28;;;45.42;;
56285;SDS011;42191;47.562;9.686;2023-02-13T03:57:33;47.28;;;43.53;;
56285;SDS011;42191;47.562;9.686;2023-02-13T04:00:22;47.03;;;43.22;;
56285;SDS011;42191;47.562;9.686;2023-02-13T04:03:10;48.80;;;44.88;;
56285;SDS011;42191;47.562;9.686;2023-02-13T04:05:45;48.67;;;45.00;;
56285;SDS011;42191;47.562;9.686;2023-02-13T04:08:15;49.95;;;46.10;;
56285;SDS011;42191;47.562;9.686;2023-02-13T04:10:49;49.75;;;45.75;;
56285;SDS011;42191;47.562;9.686;2023-02-13T04:13:54;48.03;;;44.25;;
56285;SDS011;42191;47.562;9.686;2023-02-13T04:16:20;46.83;;;43.28;;
56285;SDS011;42191;47.562;9.686;2023-02-13T04:19:05;47.97;;;44.38;;
56285;SDS011;42191;47.562;9.686;2023-02-13T04:21:33;48.20;;;44.50;;
56285;SDS011;42191;47.562;9.686;2023-02-13T04:24:00;48.42;;;44.58;;
56285;SDS011;42191;47.562;9.686;2023-02-13T04:26:28;46.70;;;43.13;;
56285;SDS011;42191;47.562;9.686;2023-02-13T04:28:59;47.53;;;43.95;;
56285;SDS011;42191;47.562;9.686;2023-02-13T04:31:25;47.00;;;43.35;;
56285;SDS011;42191;47.562;9.686;2023-02-13T04:33:51;44.90;;;41.20;;
56285;SDS011;42191;47.562;9.686;2023-02-13T04:36:17;46.25;;;42.65;;
56285;SDS011;42191;47.562;9.686;2023-02-13T04:38:43;47.47;;;43.58;;
56285;SDS011;42191;47.562;9.686;2023-02-13T04:41:10;47.92;;;44.13;;
56285;SDS011;42191;47.562;9.686;2023-02-13T04:43:36;48.85;;;44.90;;
56285;SDS011;42191;47.562;9.686;2023-02-13T04:46:02;48.40;;;44.63;;
56285;SDS011;42191;47.562;9.686;2023-02-13T04:48:28;47.00;;;43.20;;
56285;SDS011;42191;47.562;9.686;2023-02-13T04:50:55;49.90;;;46.03;;
56285;SDS011;42191;47.562;9.686;2023-02-13T04:53:21;48.78;;;44.95;;
56285;SDS011;42191;47.562;9.686;2023-02-13T04:55:47;45.90;;;42.20;;
56285;SDS011;42191;47.562;9.686;2023-02-13T04:58:13;46.00;;;42.45;;
56285;SDS011;42191;47.562;9.686;2023-02-13T05:00:39;48.85;;;45.03;;
56285;SDS011;42191;47.562;9.686;2023-02-13T05:03:07;47.45;;;43.75;;
56285;SDS011;42191;47.562;9.686;2023-02-13T05:05:34;51.08;;;46.88;;
56285;SDS011;42191;47.562;9.686;2023-02-13T05:08:01;50.47;;;46.25;;
56285;SDS011;42191;47.562;9.686;2023-02-13T05:10:27;50.50;;;46.30;;
56285;SDS011;42191;47.562;9.686;2023-02-13T05:12:53;48.20;;;44.28;;
56285;SDS011;42191;47.562;9.686;2023-02-13T05:15:20;50.65;;;46.40;;
56285;SDS011;42191;47.562;9.686;2023-02-13T05:17:47;49.80;;;45.45;;
56285;SDS011;42191;47.562;9.686;2023-02-13T05:20:14;50.70;;;46.33;;
56285;SDS011;42191;47.562;9.686;2023-02-13T05:22:44;50.60;;;46.47;;
56285;SDS011;42191;47.562;9.686;2023-02-13T05:25:30;50.13;;;46.00;;
56285;SDS011;42191;47.562;9.686;2023-02-13T05:27:56;49.47;;;45.42;;
56285;SDS011;42191;47.562;9.686;2023-02-13T05:30:22;48.72;;;44.90;;
56285;SDS011;42191;47.562;9.686;2023-02-13T05:32:49;48.45;;;44.50;;
56285;SDS011;42191;47.562;9.686;2023-02-13T05:35:16;48.38;;;44.08;;
56285;SDS011;42191;47.562;9.686;2023-02-13T05:37:43;48.70;;;44.88;;
56285;SDS011;42191;47.562;9.686;2023-02-13T05:40:09;50.10;;;46.15;;
56285;SDS011;42191;47.562;9.686;2023-02-13T05:42:37;47.40;;;43.72;;
56285;SDS011;42191;47.562;9.686;2023-02-13T05:45:04;48.20;;;44.40;;
56285;SDS011;42191;47.562;9.686;2023-02-13T05:47:31;46.88;;;43.05;;
56285;SDS011;42191;47.562;9.686;2023-02-13T05:49:57;48.75;;;44.75;;
56285;SDS011;42191;47.562;9.686;2023-02-13T05:52:24;48.95;;;44.97;;
56285;SDS011;42191;47.562;9.686;2023-02-13T05:54:50;50.50;;;46.53;;
56285;SDS011;42191;47.562;9.686;2023-02-13T05:57:17;50.25;;;46.17;;
56285;SDS011;42191;47.562;9.686;2023-02-13T05:59:43;51.92;;;47.75;;
56285;SDS011;42191;47.562;9.686;2023-02-13T06:02:09;47.38;;;43.45;;
56285;SDS011;42191;47.562;9.686;2023-02-13T06:04:36;48.53;;;44.67;;
56285;SDS011;42191;47.562;9.686;2023-02-13T06:07:02;50.70;;;46.70;;
56285;SDS011;42191;47.562;9.686;2023-02-13T06:09:28;46.55;;;42.55;;
56285;SDS011;42191;47.562;9.686;2023-02-13T06:11:54;49.95;;;45.88;;
56285;SDS011;42191;47.562;9.686;2023-02-13T06:14:20;49.60;;;45.47;;
56285;SDS011;42191;47.562;9.686;2023-02-13T06:16:46;49.25;;;45.13;;
56285;SDS011;42191;47.562;9.686;2023-02-13T06:19:12;50.17;;;46.08;;
56285;SDS011;42191;47.562;9.686;2023-02-13T06:21:38;49.17;;;45.20;;
56285;SDS011;42191;47.562;9.686;2023-02-13T06:24:04;49.13;;;45.08;;
56285;SDS011;42191;47.562;9.686;2023-02-13T06:26:32;47.70;;;44.00;;
56285;SDS011;42191;47.562;9.686;2023-02-13T06:28:58;50.75;;;46.53;;
56285;SDS011;42191;47.562;9.686;2023-02-13T06:31:24;50.58;;;46.58;;
56285;SDS011;42191;47.562;9.686;2023-02-13T06:33:51;51.88;;;47.60;;
56285;SDS011;42191;47.562;9.686;2023-02-13T06:36:17;49.33;;;45.30;;
56285;SDS011;42191;47.562;9.686;2023-02-13T06:38:43;50.88;;;46.53;;
56285;SDS011;42191;47.562;9.686;2023-02-13T06:41:09;50.72;;;46.50;;
56285;SDS011;42191;47.562;9.686;2023-02-13T06:43:35;50.85;;;46.75;;
56285;SDS011;42191;47.562;9.686;2023-02-13T06:46:05;49.55;;;45.28;;
56285;SDS011;42191;47.562;9.686;2023-02-13T06:48:32;48.72;;;44.58;;
56285;SDS011;42191;47.562;9.686;2023-02-13T06:50:58;51.53;;;47.17;;
56285;SDS011;42191;47.562;9.686;2023-02-13T06:53:26;51.25;;;46.83;;
56285;SDS011;42191;47.562;9.686;2023-02-13T06:55:53;49.08;;;44.88;;
56285;SDS011;42191;47.562;9.686;2023-02-13T06:58:20;49.70;;;45.47;;
56285;SDS011;42191;47.562;9.686;2023-02-13T07:00:47;50.90;;;46.53;;
56285;SDS011;42191;47.562;9.686;2023-02-13T07:03:14;52.42;;;47.92;;
56285;SDS011;42191;47.562;9.686;2023-02-13T07:05:40;51.25;;;46.90;;
56285;SDS011;42191;47.562;9.686;2023-02-13T07:08:08;49.75;;;45.42;;
56285;SDS011;42191;47.562;9.686;2023-02-13T07:10:38;51.83;;;47.53;;
56285;SDS011;42191;47.562;9.686;2023-02-13T07:13:05;52.72;;;48.25;;
56285;SDS011;42191;47.562;9.686;2023-02-13T07:15:32;50.50;;;46.35;;
56285;SDS011;42191;47.562;9.686;2023-02-13T07:17:59;50.25;;;46.05;;
56285;SDS011;42191;47.562;9.686;2023-02-13T07:20:26;51.42;;;46.92;;
56285;SDS011;42191;47.562;9.686;2023-02-13T07:22:56;51.75;;;47.45;;
56285;SDS011;42191;47.562;9.686;2023-02-13T07:25:23;50.42;;;45.97;;
56285;SDS011;42191;47.562;9.686;2023-02-13T07:27:50;51.30;;;47.10;;
56285;SDS011;42191;47.562;9.686;2023-02-13T07:30:16;50.17;;;46.00;;
56285;SDS011;42191;47.562;9.686;2023-02-13T07:32:42;50.60;;;46.47;;
56285;SDS011;42191;47.562;9.686;2023-02-13T07:35:09;51.10;;;46.90;;
56285;SDS011;42191;47.562;9.686;2023-02-13T07:37:35;50.03;;;45.88;;
56285;SDS011;42191;47.562;9.686;2023-02-13T07:40:01;49.28;;;45.28;;
56285;SDS011;42191;47.562;9.686;2023-02-13T07:42:28;51.88;;;47.40;;
56285;SDS011;42191;47.562;9.686;2023-02-13T07:44:57;50.35;;;46.20;;
56285;SDS011;42191;47.562;9.686;2023-02-13T07:47:23;51.42;;;47.17;;
56285;SDS011;42191;47.562;9.686;2023-02-13T07:49:49;52.20;;;47.90;;
56285;SDS011;42191;47.562;9.686;2023-02-13T07:52:15;53.05;;;48.70;;
56285;SDS011;42191;47.562;9.686;2023-02-13T07:54:41;46.97;;;43.13;;
56285;SDS011;42191;47.562;9.686;2023-02-13T07:57:11;48.58;;;44.55;;
56285;SDS011;42191;47.562;9.686;2023-02-13T07:59:38;49.88;;;45.70;;
56285;SDS011;42191;47.562;9.686;2023-02-13T08:02:04;48.20;;;44.20;;
56285;SDS011;42191;47.562;9.686;2023-02-13T08:04:34;51.70;;;47.33;;
56285;SDS011;42191;47.562;9.686;2023-02-13T08:07:00;51.80;;;47.30;;
56285;SDS011;42191;47.562;9.686;2023-02-13T08:09:26;50.60;;;46.35;;
56285;SDS011;42191;47.562;9.686;2023-02-13T08:12:11;50.00;;;45.50;;
56285;SDS011;42191;47.562;9.686;2023-02-13T08:14:37;51.17;;;46.90;;
56285;SDS011;42191;47.562;9.686;2023-02-13T08:17:03;50.95;;;46.80;;
56285;SDS011;42191;47.562;9.686;2023-02-13T08:19:29;51.50;;;47.20;;
56285;SDS011;42191;47.562;9.686;2023-02-13T08:21:55;50.13;;;45.90;;
56285;SDS011;42191;47.562;9.686;2023-02-13T08:24:22;50.30;;;46.10;;
56285;SDS011;42191;47.562;9.686;2023-02-13T08:26:48;49.70;;;45.65;;
56285;SDS011;42191;47.562;9.686;2023-02-13T08:29:14;52.38;;;48.00;;
56285;SDS011;42191;47.562;9.686;2023-02-13T08:31:40;50.97;;;46.58;;
56285;SDS011;42191;47.562;9.686;2023-02-13T08:34:06;51.35;;;46.85;;
56285;SDS011;42191;47.562;9.686;2023-02-13T08:36:32;49.40;;;45.20;;
56285;SDS011;42191;47.562;9.686;2023-02-13T08:38:58;51.90;;;46.92;;
56285;SDS011;42191;47.562;9.686;2023-02-13T08:41:25;50.90;;;46.60;;
56285;SDS011;42191;47.562;9.686;2023-02-13T08:43:52;50.72;;;46.50;;
56285;SDS011;42191;47.562;9.686;2023-02-13T08:46:19;48.80;;;44.63;;
56285;SDS011;42191;47.562;9.686;2023-02-13T08:48:45;52.28;;;47.97;;
56285;SDS011;42191;47.562;9.686;2023-02-13T08:51:12;47.63;;;43.60;;
56285;SDS011;42191;47.562;9.686;2023-02-13T08:53:39;48.58;;;44.58;;
56285;SDS011;42191;47.562;9.686;2023-02-13T08:56:06;49.60;;;45.60;;
56285;SDS011;42191;47.562;9.686;2023-02-13T08:58:32;48.60;;;44.67;;
56285;SDS011;42191;47.562;9.686;2023-02-13T09:00:59;48.80;;;44.88;;
56285;SDS011;42191;47.562;9.686;2023-02-13T09:03:28;47.92;;;43.75;;
56285;SDS011;42191;47.562;9.686;2023-02-13T09:05:57;49.00;;;45.00;;
56285;SDS011;42191;47.562;9.686;2023-02-13T09:08:24;48.88;;;44.85;;
56285;SDS011;42191;47.562;9.686;2023-02-13T09:11:00;48.05;;;44.10;;
56285;SDS011;42191;47.562;9.686;2023-02-13T09:13:28;48.92;;;44.75;;
56285;SDS011;42191;47.562;9.686;2023-02-13T09:15:58;47.80;;;44.00;;
56285;SDS011;42191;47.562;9.686;2023-02-13T09:18:26;51.03;;;46.80;;
56285;SDS011;42191;47.562;9.686;2023-02-13T09:23:26;48.33;;;44.55;;
56285;SDS011;42191;47.562;9.686;2023-02-13T09:25:57;48.13;;;44.17;;
56285;SDS011;42191;47.562;9.686;2023-02-13T09:28:25;48.78;;;44.58;;
56285;SDS011;42191;47.562;9.686;2023-02-13T09:30:51;48.83;;;44.75;;
56285;SDS011;42191;47.562;9.686;2023-02-13T09:33:17;49.85;;;45.60;;
56285;SDS011;42191;47.562;9.686;2023-02-13T09:35:43;49.50;;;45.50;;
56285;SDS011;42191;47.562;9.686;2023-02-13T09:38:09;51.47;;;47.03;;
56285;SDS011;42191;47.562;9.686;2023-02-13T09:40:38;50.72;;;46.60;;
56285;SDS011;42191;47.562;9.686;2023-02-13T09:43:14;49.10;;;44.95;;
56285;SDS011;42191;47.562;9.686;2023-02-13T09:45:51;50.50;;;46.40;;
56285;SDS011;42191;47.562;9.686;2023-02-13T09:48:25;49.55;;;45.25;;
56285;SDS011;42191;47.562;9.686;2023-02-13T09:50:53;48.70;;;44.60;;
56285;SDS011;42191;47.562;9.686;2023-02-13T09:53:21;48.88;;;44.97;;
56285;SDS011;42191;47.562;9.686;2023-02-13T10:01:44;48.30;;;44.20;;
56285;SDS011;42191;47.562;9.686;2023-02-13T10:07:11;46.53;;;42.77;;
56285;SDS011;42191;47.562;9.686;2023-02-13T10:12:27;49.08;;;44.97;;
56285;SDS011;42191;47.562;9.686;2023-02-13T10:15:07;47.03;;;43.20;;
56285;SDS011;42191;47.562;9.686;2023-02-13T10:17:52;48.10;;;44.10;;
56285;SDS011;42191;47.562;9.686;2023-02-13T10:20:41;48.78;;;44.97;;
56285;SDS011;42191;47.562;9.686;2023-02-13T10:23:21;47.70;;;43.55;;
56285;SDS011;42191;47.562;9.686;2023-02-13T10:28:32;49.03;;;45.13;;
56285;SDS011;42191;47.562;9.686;2023-02-13T10:31:09;47.42;;;43.70;;
56285;SDS011;42191;47.562;9.686;2023-02-13T10:36:17;48.83;;;44.72;;
56285;SDS011;42191;47.562;9.686;2023-02-13T10:39:09;50.00;;;45.58;;
56285;SDS011;42191;47.562;9.686;2023-02-13T10:55:31;52.53;;;48.05;;
56285;SDS011;42191;47.562;9.686;2023-02-13T11:03:27;51.45;;;47.33;;
56285;SDS011;42191;47.562;9.686;2023-02-13T11:05:54;50.65;;;46.33;;
56285;SDS011;42191;47.562;9.686;2023-02-13T11:08:23;52.80;;;48.28;;
56285;SDS011;42191;47.562;9.686;2023-02-13T11:10:52;51.55;;;47.15;;
56285;SDS011;42191;47.562;9.686;2023-02-13T11:13:22;51.35;;;46.95;;
56285;SDS011;42191;47.562;9.686;2023-02-13T11:18:26;51.38;;;46.97;;
56285;SDS011;42191;47.562;9.686;2023-02-13T11:21:00;50.58;;;46.05;;
56285;SDS011;42191;47.562;9.686;2023-02-13T11:29:15;51.53;;;47.13;;
56285;SDS011;42191;47.562;9.686;2023-02-13T11:31:44;49.07;;;45.10;;
56285;SDS011;42191;47.562;9.686;2023-02-13T11:34:24;52.33;;;47.75;;
56285;SDS011;42191;47.562;9.686;2023-02-13T11:36:54;53.13;;;48.53;;
56285;SDS011;42191;47.562;9.686;2023-02-13T11:39:41;52.50;;;48.05;;
56285;SDS011;42191;47.562;9.686;2023-02-13T11:44:59;51.03;;;46.45;;
56285;SDS011;42191;47.562;9.686;2023-02-13T11:50:06;49.38;;;45.15;;
56285;SDS011;42191;47.562;9.686;2023-02-13T11:58:37;50.75;;;46.53;;
56285;SDS011;42191;47.562;9.686;2023-02-13T12:00:49;54.80;;;49.72;;
56285;SDS011;42191;47.562;9.686;2023-02-13T12:03:31;54.33;;;49.73;;
56285;SDS011;42191;47.562;9.686;2023-02-13T12:06:02;51.75;;;47.42;;
56285;SDS011;42191;47.562;9.686;2023-02-13T12:08:29;54.95;;;50.28;;
56285;SDS011;42191;47.562;9.686;2023-02-13T12:11:01;53.47;;;48.77;;
56285;SDS011;42191;47.562;9.686;2023-02-13T12:13:38;52.55;;;47.88;;
56285;SDS011;42191;47.562;9.686;2023-02-13T12:16:08;52.22;;;47.75;;
56285;SDS011;42191;47.562;9.686;2023-02-13T12:18:43;55.08;;;50.28;;
56285;SDS011;42191;47.562;9.686;2023-02-13T12:26:48;51.30;;;46.75;;
56285;SDS011;42191;47.562;9.686;2023-02-13T12:38:29;53.90;;;49.17;;
56285;SDS011;42191;47.562;9.686;2023-02-13T12:51:58;57.70;;;52.20;;
56285;SDS011;42191;47.562;9.686;2023-02-13T12:57:42;55.33;;;50.22;;
56285;SDS011;42191;47.562;9.686;2023-02-13T13:00:43;55.40;;;50.03;;
56285;SDS011;42191;47.562;9.686;2023-02-13T13:03:19;53.20;;;48.38;;
56285;SDS011;42191;47.562;9.686;2023-02-13T13:08:39;50.67;;;46.00;;
56285;SDS011;42191;47.562;9.686;2023-02-13T13:16:49;52.47;;;47.95;;
56285;SDS011;42191;47.562;9.686;2023-02-13T13:25:24;50.05;;;45.72;;
56285;SDS011;42191;47.562;9.686;2023-02-13T13:28:00;54.47;;;49.80;;
56285;SDS011;42191;47.562;9.686;2023-02-13T13:30:46;51.55;;;46.80;;
56285;SDS011;42191;47.562;9.686;2023-02-13T13:35:46;53.10;;;48.60;;
56285;SDS011;42191;47.562;9.686;2023-02-13T13:38:42;51.00;;;46.67;;
56285;SDS011;42191;47.562;9.686;2023-02-13T13:49:34;52.60;;;47.78;;
56285;SDS011;42191;47.562;9.686;2023-02-13T13:54:47;52.25;;;47.75;;
56285;SDS011;42191;47.562;9.686;2023-02-13T13:57:26;50.80;;;46.45;;
56285;SDS011;42191;47.562;9.686;2023-02-13T14:02:37;51.75;;;47.10;;
56285;SDS011;42191;47.562;9.686;2023-02-13T14:08:07;52.92;;;48.45;;
56285;SDS011;42191;47.562;9.686;2023-02-13T14:11:03;48.13;;;43.92;;
56285;SDS011;42191;47.562;9.686;2023-02-13T14:13:34;49.35;;;44.97;;
56285;SDS011;42191;47.562;9.686;2023-02-13T14:16:03;51.40;;;46.92;;
56285;SDS011;42191;47.562;9.686;2023-02-13T14:18:30;48.85;;;44.35;;
56285;SDS011;42191;47.562;9.686;2023-02-13T14:20:59;52.40;;;47.95;;
56285;SDS011;42191;47.562;9.686;2023-02-13T14:28:41;50.10;;;45.80;;
56285;SDS011;42191;47.562;9.686;2023-02-13T14:31:20;49.50;;;44.67;;
56285;SDS011;42191;47.562;9.686;2023-02-13T14:33:56;49.00;;;44.80;;
56285;SDS011;42191;47.562;9.686;2023-02-13T14:36:26;49.65;;;45.42;;
56285;SDS011;42191;47.562;9.686;2023-02-13T14:39:20;48.38;;;44.28;;
56285;SDS011;42191;47.562;9.686;2023-02-13T14:44:21;48.83;;;44.65;;
56285;SDS011;42191;47.562;9.686;2023-02-13T14:46:50;48.80;;;44.55;;
56285;SDS011;42191;47.562;9.686;2023-02-13T14:49:27;49.63;;;45.17;;
56285;SDS011;42191;47.562;9.686;2023-02-13T14:54:37;50.13;;;45.78;;
56285;SDS011;42191;47.562;9.686;2023-02-13T14:57:18;49.42;;;45.28;;
56285;SDS011;42191;47.562;9.686;2023-02-13T14:59:52;49.10;;;44.97;;
56285;SDS011;42191;47.562;9.686;2023-02-13T15:02:22;49.88;;;45.55;;
56285;SDS011;42191;47.562;9.686;2023-02-13T15:04:58;49.05;;;44.80;;
56285;SDS011;42191;47.562;9.686;2023-02-13T15:07:29;49.90;;;45.60;;
56285;SDS011;42191;47.562;9.686;2023-02-13T15:09:59;48.55;;;44.20;;
56285;SDS011;42191;47.562;9.686;2023-02-13T15:12:40;49.70;;;45.03;;
56285;SDS011;42191;47.562;9.686;2023-02-13T15:18:09;46.58;;;42.40;;
56285;SDS011;42191;47.562;9.686;2023-02-13T15:20:42;51.42;;;46.85;;
56285;SDS011;42191;47.562;9.686;2023-02-13T15:23:20;50.42;;;45.95;;
56285;SDS011;42191;47.562;9.686;2023-02-13T15:25:47;51.67;;;46.95;;
56285;SDS011;42191;47.562;9.686;2023-02-13T15:28:22;51.00;;;46.60;;
56285;SDS011;42191;47.562;9.686;2023-02-13T15:30:53;52.00;;;47.40;;
56285;SDS011;42191;47.562;9.686;2023-02-13T15:33:20;50.72;;;46.08;;
56285;SDS011;42191;47.562;9.686;2023-02-13T15:35:55;49.08;;;44.88;;
56285;SDS011;42191;47.562;9.686;2023-02-13T15:38:32;49.83;;;45.60;;
56285;SDS011;42191;47.562;9.686;2023-02-13T15:41:08;49.75;;;45.50;;
56285;SDS011;42191;47.562;9.686;2023-02-13T15:48:57;51.35;;;46.85;;
56285;SDS011;42191;47.562;9.686;2023-02-13T15:51:32;50.50;;;45.97;;
56285;SDS011;42191;47.562;9.686;2023-02-13T15:54:03;51.53;;;46.83;;
56285;SDS011;42191;47.562;9.686;2023-02-13T15:56:30;52.20;;;47.47;;
56285;SDS011;42191;47.562;9.686;2023-02-13T15:58:58;52.22;;;47.53;;
56285;SDS011;42191;47.562;9.686;2023-02-13T16:01:25;50.13;;;45.63;;
56285;SDS011;42191;47.562;9.686;2023-02-13T16:03:57;52.25;;;47.67;;
56285;SDS011;42191;47.562;9.686;2023-02-13T16:06:28;51.75;;;47.10;;
56285;SDS011;42191;47.562;9.686;2023-02-13T16:08:55;53.30;;;48.55;;
56285;SDS011;42191;47.562;9.686;2023-02-13T16:11:24;51.25;;;46.95;;
56285;SDS011;42191;47.562;9.686;2023-02-13T16:24:48;51.70;;;47.05;;
56285;SDS011;42191;47.562;9.686;2023-02-13T16:27:17;50.85;;;46.42;;
56285;SDS011;42191;47.562;9.686;2023-02-13T16:29:53;54.28;;;49.33;;
56285;SDS011;42191;47.562;9.686;2023-02-13T16:32:23;53.55;;;48.80;;
56285;SDS011;42191;47.562;9.686;2023-02-13T16:34:55;50.83;;;46.15;;
56285;SDS011;42191;47.562;9.686;2023-02-13T16:37:46;52.13;;;47.65;;
56285;SDS011;42191;47.562;9.686;2023-02-13T16:40:36;51.85;;;47.45;;
56285;SDS011;42191;47.562;9.686;2023-02-13T16:51:31;50.90;;;46.33;;
56285;SDS011;42191;47.562;9.686;2023-02-13T16:56:49;54.10;;;49.20;;
56285;SDS011;42191;47.562;9.686;2023-02-13T17:07:42;55.58;;;49.92;;
56285;SDS011;42191;47.562;9.686;2023-02-13T17:10:25;54.95;;;49.95;;
56285;SDS011;42191;47.562;9.686;2023-02-13T17:12:52;54.88;;;49.88;;
56285;SDS011;42191;47.562;9.686;2023-02-13T17:15:21;51.17;;;46.78;;
56285;SDS011;42191;47.562;9.686;2023-02-13T17:17:49;51.25;;;46.55;;
56285;SDS011;42191;47.562;9.686;2023-02-13T17:20:18;53.67;;;48.75;;
56285;SDS011;42191;47.562;9.686;2023-02-13T17:22:47;54.75;;;49.83;;
56285;SDS011;42191;47.562;9.686;2023-02-13T17:25:17;57.25;;;51.78;;
56285;SDS011;42191;47.562;9.686;2023-02-13T17:27:47;56.67;;;51.30;;
56285;SDS011;42191;47.562;9.686;2023-02-13T17:30:15;57.38;;;51.97;;
56285;SDS011;42191;47.562;9.686;2023-02-13T17:32:46;57.83;;;52.33;;
56285;SDS011;42191;47.562;9.686;2023-02-13T17:35:14;56.80;;;51.22;;
56285;SDS011;42191;47.562;9.686;2023-02-13T17:37:42;55.05;;;49.65;;
56285;SDS011;42191;47.562;9.686;2023-02-13T17:40:14;56.25;;;50.75;;
56285;SDS011;42191;47.562;9.686;2023-02-13T17:42:43;56.45;;;51.35;;
56285;SDS011;42191;47.562;9.686;2023-02-13T17:45:15;55.40;;;50.38;;
56285;SDS011;42191;47.562;9.686;2023-02-13T17:47:43;57.00;;;51.65;;
56285;SDS011;42191;47.562;9.686;2023-02-13T17:50:09;55.63;;;50.50;;
56285;SDS011;42191;47.562;9.686;2023-02-13T17:52:37;55.25;;;50.13;;
56285;SDS011;42191;47.562;9.686;2023-02-13T17:55:06;56.25;;;51.17;;
56285;SDS011;42191;47.562;9.686;2023-02-13T17:57:41;54.28;;;49.15;;
56285;SDS011;42191;47.562;9.686;2023-02-13T18:00:08;56.10;;;51.10;;
56285;SDS011;42191;47.562;9.686;2023-02-13T18:02:34;54.58;;;49.70;;
56285;SDS011;42191;47.562;9.686;2023-02-13T18:05:00;54.83;;;49.80;;